Flight Track Log - Related Links

Times and Time Zones

All times are in EDT time to prevent confusion due to time zone crossing. See the JA-614J flight status page for this flight to view local times or setup timezone preferences in your user account.

Time Position Orientation Groundspeed Altitude Reporting Facility
EDT Latitude Longitude Course Direction KTS MPH feet Rate Location/Type
Wed 06:01:12 AM 35.6680 140.4450 149° Southeast 230 265 4,900  Level FlightAware ADS-B
Wed 06:01:22 AM 35.6570 140.4530 149° Southeast 252 290 5,100 2,267 Climbing FlightAware ADS-B
Wed 06:01:57 AM 35.6210 140.4790 150° Southeast 272 313 6,600 2,640 Climbing FlightAware ADS-B
Wed 06:02:12 AM 35.6040 140.4850 164° South 270 311 7,300 1,034 Climbing FlightAware ADS-B
Wed 06:04:00 AM 35.5350 140.2829 247° West  Level Estimated
Wed 06:05:00 AM 35.4968 140.1716 247° West  Level Estimated
Wed 06:06:00 AM 35.4586 140.0603 247° West  Level Estimated
Wed 06:07:00 AM 35.4202 139.9492 247° West  Level Estimated
Wed 06:08:00 AM 35.3817 139.8382 247° West  Level Estimated
Wed 06:09:00 AM 35.3431 139.7273 247° West  Level Estimated
Wed 06:10:00 AM 35.3045 139.6165 247° West  Level Estimated
Wed 06:11:00 AM 35.2657 139.5059 247° West  Level Estimated
Wed 06:12:00 AM 35.2268 139.3953 247° West  Level Estimated
Wed 06:13:00 AM 35.1878 139.2848 247° West  Level Estimated
Wed 06:14:00 AM 35.1487 139.1744 247° West  Level Estimated
Wed 06:15:00 AM 35.1095 139.0642 247° West  Level Estimated
Wed 06:16:00 AM 35.0702 138.9540 246° West  Level Estimated
Wed 06:17:00 AM 35.0308 138.8440 246° West  Level Estimated
Wed 06:18:00 AM 34.9913 138.7340 246° West  Level Estimated
Wed 06:18:47 AM 35.1370 138.9460 246° West 315 362 24,000  Level FlightAware ADS-B
Wed 06:19:27 AM 35.1300 138.8740 263° West 323 372 24,000  Level FlightAware ADS-B
Wed 06:20:12 AM 35.1300 138.7930 270° West 321 369 24,000  Level FlightAware ADS-B
Wed 06:20:52 AM 35.1300 138.7200 270° West 319 367 24,000  Level FlightAware ADS-B
Wed 06:21:37 AM 35.1300 138.6380 270° West 316 364 24,000  Level FlightAware ADS-B
Wed 06:22:17 AM 35.1260 138.5650 266° West 318 366 24,000  Level FlightAware ADS-B
Wed 06:22:57 AM 35.1230 138.5010 267° West 321 369 24,000  Level FlightAware ADS-B
Wed 06:23:42 AM 35.1190 138.4130 267° West 324 373 24,000  Level FlightAware ADS-B
Wed 06:24:22 AM 35.1160 138.3450 267° West 321 369 24,000  Level FlightAware ADS-B
Wed 06:25:07 AM 35.1120 138.2570 267° West 324 373 24,000  Level FlightAware ADS-B
Wed 06:25:47 AM 35.1090 138.1860 267° West 323 372 24,000  Level FlightAware ADS-B
Wed 06:26:27 AM 35.1060 138.1150 267° West 323 372 24,000  Level FlightAware ADS-B
Wed 06:27:02 AM 35.1030 138.0580 266° West 324 373 24,000  Level FlightAware ADS-B
Wed 06:27:52 AM 35.0980 137.9580 267° West 323 372 24,000  Level FlightAware ADS-B
Wed 06:28:37 AM 35.0950 137.8770 267° West 322 371 24,000  Level FlightAware ADS-B
Wed 06:29:17 AM 35.0910 137.7990 266° West 322 371 24,000  Level FlightAware ADS-B
Wed 06:29:57 AM 35.0870 137.7290 266° West 321 369 24,000  Level FlightAware ADS-B
Wed 06:30:42 AM 35.0830 137.6450 267° West 321 369 24,000  Level FlightAware ADS-B
Wed 06:31:17 AM 35.0800 137.5830 267° West 321 369 24,000  Level FlightAware ADS-B
Wed 06:31:57 AM 35.0770 137.5160 267° West 321 369 24,000  Level FlightAware ADS-B
Wed 06:33:37 AM 35.0410 137.3560 255° West 312 359 24,000  Level FlightAware ADS-B
Wed 06:36:00 AM 34.9367 137.0914 244° Southwest  Level Estimated
Wed 06:37:00 AM 34.8927 136.9806 244° Southwest  Level Estimated
Wed 06:38:00 AM 34.8487 136.8699 244° Southwest  Level Estimated
Wed 06:39:00 AM 34.8045 136.7594 244° Southwest  Level Estimated
Wed 06:40:00 AM 34.7603 136.6489 244° Southwest  Level Estimated
Wed 06:41:00 AM 34.7159 136.5386 244° Southwest  Level Estimated
Wed 06:42:00 AM 34.6715 136.4284 244° Southwest  Level Estimated
Wed 06:43:00 AM 34.6269 136.3183 244° Southwest  Level Estimated
Wed 06:44:00 AM 34.5823 136.2083 244° Southwest  Level Estimated
Wed 06:45:00 AM 34.5376 136.0985 244° Southwest  Level Estimated
Wed 06:46:00 AM 34.4927 135.9887 244° Southwest  Level Estimated
Wed 06:47:00 AM 34.4479 135.8795 244° Southwest  Level Estimated
Wed 06:48:00 AM 34.4031 135.7704 244° Southwest  Level Estimated
Wed 06:48:12 AM 34.4980 135.9710 244° Southwest 305 351 24,000  Level FlightAware ADS-B
Wed 06:48:52 AM 34.4700 135.9060 242° Southwest 305 351 24,000  Level FlightAware ADS-B
Wed 06:49:37 AM 34.4400 135.8370 242° Southwest 304 350 24,000  Level FlightAware ADS-B
Wed 06:50:12 AM 34.4170 135.7840 242° Southwest 305 351 24,000  Level FlightAware ADS-B
Wed 06:51:02 AM 34.3850 135.7110 242° Southwest 296 341 24,000  Level FlightAware ADS-B
Wed 06:51:42 AM 34.3600 135.6530 242° Southwest 286 329 24,000  Level FlightAware ADS-B
Wed 06:52:27 AM 34.3330 135.5890 243° Southwest 289 333 24,000  Level FlightAware ADS-B
Wed 06:53:07 AM 34.3090 135.5340 242° Southwest 290 334 24,000  Level FlightAware ADS-B
Wed 06:53:52 AM 34.2800 135.4670 242° Southwest 286 329 24,000  Level FlightAware ADS-B
Wed 06:54:32 AM 34.2550 135.4110 242° Southwest 286 329 24,000  Level FlightAware ADS-B
Wed 06:55:17 AM 34.2290 135.3510 242° Southwest 287 330 24,000  Level FlightAware ADS-B
Wed 06:55:57 AM 34.2030 135.2910 242° Southwest 287 330 24,000  Level FlightAware ADS-B
Wed 06:56:37 AM 34.1770 135.2320 242° Southwest 288 331 24,000  Level FlightAware ADS-B
Wed 06:57:22 AM 34.1480 135.1670 242° Southwest 291 335 24,000  Level FlightAware ADS-B
Wed 06:58:02 AM 34.1240 135.1120 242° Southwest 293 337 24,000  Level FlightAware ADS-B
Wed 06:58:42 AM 34.0970 135.0500 242° Southwest 293 337 24,000  Level FlightAware ADS-B
Wed 06:59:27 AM 34.0660 134.9810 242° Southwest 295 339 24,000  Level FlightAware ADS-B
Wed 07:00:07 AM 34.0410 134.9250 242° Southwest 294 338 24,000  Level FlightAware ADS-B
Wed 07:00:52 AM 34.0120 134.8590 242° Southwest 293 337 24,000  Level FlightAware ADS-B
Wed 07:01:32 AM 33.9860 134.8000 242° Southwest 292 336 24,000  Level FlightAware ADS-B
Wed 07:02:12 AM 33.9600 134.7420 242° Southwest 293 337 24,000  Level FlightAware ADS-B
Wed 07:02:57 AM 33.9310 134.6770 242° Southwest 294 338 24,000  Level FlightAware ADS-B
Wed 07:03:37 AM 33.9060 134.6220 241° Southwest 295 339 24,000  Level FlightAware ADS-B
Wed 07:04:12 AM 33.8830 134.5700 242° Southwest 302 348 24,000  Level FlightAware ADS-B
Wed 07:05:02 AM 33.8460 134.4870 242° Southwest 310 357 24,000  Level FlightAware ADS-B
Wed 07:05:42 AM 33.8170 134.4280 239° Southwest 312 359 24,000  Level FlightAware ADS-B
Wed 07:06:27 AM 33.7850 134.3640 239° Southwest 310 357 24,000  Level FlightAware ADS-B
Wed 07:07:07 AM 33.7540 134.3020 239° Southwest 311 358 24,000  Level FlightAware ADS-B
Wed 07:07:52 AM 33.7200 134.2350 239° Southwest 314 361 24,000  Level FlightAware ADS-B
Wed 07:08:32 AM 33.6920 134.1790 239° Southwest 315 362 24,000  Level FlightAware ADS-B
Wed 07:09:12 AM 33.6600 134.1160 239° Southwest 315 362 24,000 565 Level FlightAware ADS-B
Wed 07:09:57 AM 33.6280 134.0520 239° Southwest 296 341 24,800 1,482 Climbing FlightAware ADS-B
Wed 07:10:37 AM 33.5990 133.9970 238° Southwest 280 322 26,100 1,976 Climbing FlightAware ADS-B
Wed 07:11:22 AM 33.5680 133.9350 239° Southwest 284 327 27,600 1,765 Climbing FlightAware ADS-B
Wed 07:12:02 AM 33.5420 133.8830 239° Southwest 289 333 28,600 1,765 Climbing FlightAware ADS-B
Wed 07:12:47 AM 33.5130 133.8260 239° Southwest 286 329 30,100 1,950 Climbing FlightAware ADS-B
Wed 07:13:22 AM 33.4860 133.7740 238° Southwest 293 337 31,200 2,100 Climbing FlightAware ADS-B
Wed 07:14:07 AM 33.4530 133.7100 238° Southwest 283 326 32,900 1,906 Climbing FlightAware ADS-B
Wed 07:14:47 AM 33.4260 133.6560 239° Southwest 279 321 33,900 776 Climbing FlightAware ADS-B
Wed 07:15:32 AM 33.3950 133.5970 238° Southwest 275 316 34,000 71 Climbing FlightAware ADS-B
Wed 07:16:12 AM 33.3680 133.5440 239° Southwest 285 328 34,000  Level FlightAware ADS-B
Wed 07:16:57 AM 33.3370 133.4830 239° Southwest 297 342 34,000  Level FlightAware ADS-B
Wed 07:17:37 AM 33.3080 133.4270 238° Southwest 300 345 34,000  Level FlightAware ADS-B
Wed 07:18:17 AM 33.2790 133.3710 238° Southwest 292 336 34,000  Level FlightAware ADS-B
Wed 07:18:57 AM 33.2500 133.3160 238° Southwest 294 338 34,000 -847 Level FlightAware ADS-B
Wed 07:19:42 AM 33.2180 133.2530 239° Southwest 290 334 32,800 -1,875 Descending FlightAware ADS-B
Wed 07:20:17 AM 33.1930 133.2060 238° Southwest 285 328 31,500 -2,188 Descending FlightAware ADS-B
Wed 07:21:07 AM 33.1590 133.1390 239° Southwest 280 322 29,700 -2,133 Descending FlightAware ADS-B
Wed 07:21:47 AM 33.1310 133.0850 238° Southwest 274 315 28,300 -1,200 Descending FlightAware ADS-B
Wed 07:22:32 AM 33.1020 133.0300 238° Southwest 297 342 28,000 -212 Descending FlightAware ADS-B
Wed 07:23:12 AM 33.0690 132.9670 238° Southwest 320 368 28,000  Level FlightAware ADS-B
Wed 07:23:57 AM 33.0330 132.8980 238° Southwest 320 368 28,000  Level FlightAware ADS-B
Wed 07:24:37 AM 33.0030 132.8410 238° Southwest 323 372 28,000  Level FlightAware ADS-B
Wed 07:25:17 AM 32.9690 132.7750 238° Southwest 339 390 28,000  Level FlightAware ADS-B
Wed 07:26:02 AM 32.9310 132.7040 237° Southwest 341 392 28,000  Level FlightAware ADS-B
Wed 07:26:42 AM 32.8990 132.6430 238° Southwest 338 389 28,000  Level FlightAware ADS-B
Wed 07:27:27 AM 32.8600 132.5690 238° Southwest 338 389 28,000  Level FlightAware ADS-B
Wed 07:28:07 AM 32.8270 132.5070 238° Southwest 336 387 28,000  Level FlightAware ADS-B
Wed 07:28:47 AM 32.7950 132.4450 238° Southwest 336 387 28,000  Level FlightAware ADS-B
Wed 07:29:32 AM 32.7570 132.3750 237° Southwest 338 389 28,000  Level FlightAware ADS-B
Wed 07:30:12 AM 32.7240 132.3120 238° Southwest 340 391 28,000  Level FlightAware ADS-B
Wed 07:30:57 AM 32.6860 132.2410 238° Southwest 339 390 28,000  Level FlightAware ADS-B
Wed 07:31:37 AM 32.6520 132.1770 238° Southwest 339 390 28,000  Level FlightAware ADS-B
Wed 07:32:22 AM 32.6120 132.1100 235° Southwest 343 395 28,000  Level FlightAware ADS-B
Wed 07:33:02 AM 32.5750 132.0460 236° Southwest 346 398 28,000  Level FlightAware ADS-B
Wed 07:33:42 AM 32.5380 131.9840 235° Southwest 345 397 28,000  Level FlightAware ADS-B
Wed 07:34:27 AM 32.4980 131.9150 236° Southwest 346 398 28,000  Level FlightAware ADS-B
Wed 07:35:07 AM 32.4610 131.8530 235° Southwest 347 399 28,000  Level FlightAware ADS-B
Wed 07:35:52 AM 32.4200 131.7830 235° Southwest 349 402 28,000  Level FlightAware ADS-B
Wed 07:36:32 AM 32.3820 131.7190 235° Southwest 350 403 28,000  Level FlightAware ADS-B
Wed 07:37:12 AM 32.3440 131.6560 234° Southwest 351 404 28,000  Level FlightAware ADS-B
Wed 07:37:52 AM 32.3090 131.5960 235° Southwest 352 405 28,000  Level FlightAware ADS-B
Wed 07:38:37 AM 32.2660 131.5240 235° Southwest 352 405 28,000  Level FlightAware ADS-B
Wed 07:39:17 AM 32.2280 131.4620 234° Southwest 350 403 28,000  Level FlightAware ADS-B
Wed 07:40:02 AM 32.1860 131.3910 235° Southwest 347 399 28,000  Level FlightAware ADS-B
Wed 07:40:42 AM 32.1480 131.3280 235° Southwest 348 400 28,000  Level FlightAware ADS-B
Wed 07:41:17 AM 32.1190 131.2790 235° Southwest 347 399 28,000  Level FlightAware ADS-B
Wed 07:42:07 AM 32.0710 131.2000 234° Southwest 332 382 28,000  Level FlightAware ADS-B
Wed 07:42:47 AM 32.0360 131.1420 235° Southwest 331 381 28,000  Level FlightAware ADS-B
Wed 07:43:32 AM 31.9950 131.0730 235° Southwest 337 388 28,000  Level FlightAware ADS-B
Wed 07:44:12 AM 31.9580 131.0120 234° Southwest 343 395 28,000  Level FlightAware ADS-B
Wed 07:44:52 AM 31.9240 130.9550 235° Southwest 342 394 28,000  Level FlightAware ADS-B
Wed 07:45:37 AM 31.8810 130.8850 234° Southwest 334 384 28,000  Level FlightAware ADS-B
Wed 07:46:17 AM 31.8470 130.8290 234° Southwest 330 380 28,000  Level FlightAware ADS-B
Wed 07:47:02 AM 31.8070 130.7620 235° Southwest 329 379 28,000  Level FlightAware ADS-B
Wed 07:47:42 AM 31.7740 130.7080 234° Southwest 331 381 28,000  Level FlightAware ADS-B
Wed 07:48:27 AM 31.7310 130.6390 234° Southwest 333 383 28,000  Level FlightAware ADS-B
Wed 07:49:12 AM 31.6910 130.5720 235° Southwest 336 387 28,000  Level FlightAware ADS-B
Wed 07:49:52 AM 31.6560 130.5190 232° Southwest 341 392 28,000  Level FlightAware ADS-B
Wed 07:50:32 AM 31.6130 130.4550 232° Southwest 349 402 28,000  Level FlightAware ADS-B
Wed 07:51:17 AM 31.5680 130.3870 232° Southwest 353 406 28,000  Level FlightAware ADS-B
Wed 07:51:57 AM 31.5310 130.3310 232° Southwest 346 398 28,000  Level FlightAware ADS-B
Wed 07:52:42 AM 31.4850 130.2610 232° Southwest 346 398 28,000  Level FlightAware ADS-B
Wed 07:53:22 AM 31.4450 130.2010 232° Southwest 350 403 28,000  Level FlightAware ADS-B
Wed 07:54:02 AM 31.4090 130.1460 233° Southwest 349 402 28,000  Level FlightAware ADS-B
Wed 07:54:37 AM 31.3720 130.0900 232° Southwest 350 403 28,000  Level FlightAware ADS-B
Wed 07:55:22 AM 31.3250 130.0200 232° Southwest 354 407 28,000  Level FlightAware ADS-B
Wed 07:56:12 AM 31.2770 129.9470 232° Southwest 353 406 28,000  Level FlightAware ADS-B
Wed 07:56:44 AM 31.2480 129.9040 232° Southwest 352 405 28,000  Level FlightAware ADS-B
Wed 07:57:29 AM 31.2010 129.8330 232° Southwest 354 407 28,000  Level FlightAware ADS-B
Wed 07:58:14 AM 31.1530 129.7620 232° Southwest 350 403 28,000  Level FlightAware ADS-B
Wed 07:58:52 AM 31.1190 129.7110 232° Southwest 350 403 28,000  Level FlightAware ADS-B
Wed 07:59:42 AM 31.0770 129.6480 232° Southwest 350 403 28,000  Level FlightAware ADS-B
Wed 08:00:22 AM 31.0430 129.5970 232° Southwest 350 403 28,000  Level FlightAware ADS-B
Wed 08:01:02 AM 31.0090 129.5470 232° Southwest 350 403 28,000  Level FlightAware ADS-B
Wed 08:01:42 AM 30.9750 129.4960 232° Southwest 350 403 28,000 75 Level FlightAware ADS-B
Wed 08:04:00 AM 30.8688 129.2655 242° Southwest  Level Estimated
Wed 08:05:00 AM 30.8224 129.1654 242° Southwest  Level Estimated
Wed 08:06:00 AM 30.7760 129.0654 242° Southwest  Level Estimated
Wed 08:07:00 AM 30.7296 128.9656 242° Southwest  Level Estimated
Wed 08:08:00 AM 30.6830 128.8658 242° Southwest  Level Estimated
Wed 08:09:00 AM 30.6364 128.7661 241° Southwest  Level Estimated
Wed 08:10:00 AM 30.5897 128.6665 241° Southwest  Level Estimated
Wed 08:11:00 AM 30.5429 128.5670 241° Southwest  Level Estimated
Wed 08:12:00 AM 30.4961 128.4677 241° Southwest  Level Estimated
Wed 08:13:00 AM 30.4491 128.3683 241° Southwest  Level Estimated
Wed 08:14:00 AM 30.4021 128.2691 241° Southwest  Level Estimated
Wed 08:15:00 AM 30.3550 128.1700 241° Southwest  Level Estimated
Wed 08:16:00 AM 30.3079 128.0710 241° Southwest  Level Estimated
Wed 08:17:00 AM 30.2607 127.9721 241° Southwest  Level Estimated
Wed 08:18:00 AM 30.2134 127.8733 241° Southwest  Level Estimated
Wed 08:19:00 AM 30.1660 127.7746 241° Southwest  Level Estimated
Wed 08:20:00 AM 30.1185 127.6760 241° Southwest  Level Estimated
Wed 08:21:00 AM 30.0710 127.5774 241° Southwest  Level Estimated
Wed 08:22:00 AM 30.0238 127.4797 241° Southwest  Level Estimated
Wed 08:23:00 AM 29.9764 127.3821 241° Southwest  Level Estimated
Wed 08:24:00 AM 29.9291 127.2845 241° Southwest  Level Estimated
Wed 08:25:00 AM 29.8816 127.1871 241° Southwest  Level Estimated
Wed 08:26:00 AM 29.8340 127.0898 241° Southwest  Level Estimated
Wed 08:27:00 AM 29.7864 126.9925 241° Southwest  Level Estimated
Wed 08:28:00 AM 29.7388 126.8953 241° Southwest  Level Estimated
Wed 08:29:00 AM 29.6910 126.7982 240° Southwest  Level Estimated
Wed 08:30:00 AM 29.6432 126.7013 240° Southwest  Level Estimated
Wed 08:31:00 AM 29.5953 126.6044 240° Southwest  Level Estimated
Wed 08:32:00 AM 29.5473 126.5076 240° Southwest  Level Estimated
Wed 08:33:00 AM 29.4993 126.4109 240° Southwest  Level Estimated
Wed 08:34:00 AM 29.4512 126.3143 240° Southwest  Level Estimated
Wed 08:35:00 AM 29.4030 126.2177 240° Southwest  Level Estimated
Wed 08:36:00 AM 29.3548 126.1213 240° Southwest  Level Estimated
Wed 08:37:00 AM 29.3068 126.0257 240° Southwest  Level Estimated
Wed 08:38:00 AM 29.2588 125.9301 240° Southwest  Level Estimated
Wed 08:39:00 AM 29.2107 125.8347 240° Southwest  Level Estimated
Wed 08:40:00 AM 29.1625 125.7393 240° Southwest  Level Estimated
Wed 08:41:00 AM 29.1143 125.6440 240° Southwest  Level Estimated
Wed 08:42:00 AM 29.0660 125.5488 240° Southwest  Level Estimated
Wed 08:43:00 AM 29.0176 125.4537 240° Southwest  Level Estimated
Wed 08:44:00 AM 28.9692 125.3587 240° Southwest  Level Estimated
Wed 08:45:00 AM 28.9207 125.2637 240° Southwest  Level Estimated
Wed 08:46:00 AM 28.8721 125.1689 240° Southwest  Level Estimated
Wed 08:47:00 AM 28.8235 125.0742 240° Southwest  Level Estimated
Wed 08:48:00 AM 28.7748 124.9795 240° Southwest  Level Estimated
Wed 08:49:00 AM 28.7260 124.8849 240° Southwest  Level Estimated
Wed 08:50:00 AM 28.6772 124.7904 240° Southwest  Level Estimated
Wed 08:51:00 AM 28.6283 124.6960 239° Southwest  Level Estimated
Wed 08:52:00 AM 28.5793 124.6017 239° Southwest  Level Estimated
Wed 08:53:00 AM 28.5303 124.5075 239° Southwest  Level Estimated
Wed 08:54:00 AM 28.4812 124.4134 239° Southwest  Level Estimated
Wed 08:55:00 AM 28.4321 124.3193 239° Southwest  Level Estimated
Wed 08:56:00 AM 28.3829 124.2254 239° Southwest  Level Estimated
Wed 08:57:00 AM 28.3336 124.1315 239° Southwest  Level Estimated
Wed 08:58:00 AM 28.2842 124.0377 239° Southwest  Level Estimated
Wed 08:59:00 AM 28.2348 123.9440 239° Southwest  Level Estimated
Wed 09:00:00 AM 28.1853 123.8504 239° Southwest  Level Estimated
Wed 09:01:00 AM 28.1358 123.7569 239° Southwest  Level Estimated
Wed 09:02:00 AM 28.0862 123.6634 239° Southwest  Level Estimated
Wed 09:03:00 AM 28.0365 123.5701 239° Southwest  Level Estimated
Wed 09:04:00 AM 27.9868 123.4768 239° Southwest  Level Estimated
Wed 09:05:00 AM 27.9370 123.3836 239° Southwest  Level Estimated
Wed 09:06:00 AM 27.8875 123.2912 239° Southwest  Level Estimated
Wed 09:07:00 AM 27.8379 123.1989 239° Southwest  Level Estimated
Wed 09:08:00 AM 27.7883 123.1066 239° Southwest  Level Estimated
Wed 09:09:00 AM 27.7386 123.0144 239° Southwest  Level Estimated
Wed 09:10:00 AM 27.6889 122.9223 239° Southwest  Level Estimated
Wed 09:11:00 AM 27.6391 122.8303 239° Southwest  Level Estimated
Wed 09:12:00 AM 27.5892 122.7384 239° Southwest  Level Estimated
Wed 09:13:00 AM 27.5393 122.6466 239° Southwest  Level Estimated
Wed 09:14:00 AM 27.4893 122.5548 238° Southwest  Level Estimated
Wed 09:15:00 AM 27.4392 122.4632 238° Southwest  Level Estimated
Wed 09:16:00 AM 27.3891 122.3716 238° Southwest  Level Estimated
Wed 09:17:00 AM 27.3389 122.2801 238° Southwest  Level Estimated
Wed 09:18:00 AM 27.2891 122.1893 238° Southwest  Level Estimated
Wed 09:19:00 AM 27.2391 122.0986 238° Southwest  Level Estimated
Wed 09:20:00 AM 27.1891 122.0080 238° Southwest  Level Estimated
Wed 09:20:52 AM 26.0230 122.5930 238° Southwest 380 437 34,000  Level FlightAware ADS-B
Wed 09:21:00 AM 27.1391 121.9174 238° Southwest  Level Estimated
Wed 09:21:32 AM 25.9760 122.5310 230° Southwest 381 438 34,000  Level FlightAware ADS-B
Wed 09:22:17 AM 25.9260 122.4660 229° Southwest 383 441 34,000  Level FlightAware ADS-B
Wed 09:22:57 AM 25.8770 122.4050 228° Southwest 385 443 34,000  Level FlightAware ADS-B
Wed 09:23:37 AM 25.8300 122.3450 229° Southwest 383 441 34,000  Level FlightAware ADS-B
Wed 09:24:17 AM 25.7820 122.2860 228° Southwest 384 442 34,000  Level FlightAware ADS-B
Wed 09:24:57 AM 25.7360 122.2280 229° Southwest 386 444 34,000  Level FlightAware ADS-B
Wed 09:25:47 AM 25.6790 122.1570 228° Southwest 386 444 34,000  Level FlightAware ADS-B
Wed 09:26:27 AM 25.6300 122.0960 228° Southwest 387 445 34,000  Level FlightAware ADS-B
Wed 09:27:07 AM 25.5830 122.0370 229° Southwest 386 444 34,000  Level FlightAware ADS-B
Wed 09:27:52 AM 25.5320 121.9710 229° Southwest 387 445 34,000  Level FlightAware ADS-B
Wed 09:28:32 AM 25.4850 121.9120 229° Southwest 387 445 34,000  Level FlightAware ADS-B
Wed 09:29:07 AM 25.4410 121.8550 229° Southwest 388 447 34,000  Level FlightAware ADS-B
Wed 09:29:57 AM 25.3830 121.7830 228° Southwest 388 447 34,000  Level FlightAware ADS-B
Wed 09:30:37 AM 25.3350 121.7210 229° Southwest 387 445 34,000  Level FlightAware ADS-B
Wed 09:31:32 AM 25.2820 121.6550 228° Southwest 387 445 34,000  Level FlightAware ADS-B
Wed 09:32:12 AM 25.2430 121.6050 229° Southwest 389 448 34,000  Level FlightAware ADS-B
Wed 09:34:00 AM 25.1818 121.4296 249° West  Level Estimated
Wed 09:34:17 AM 25.0910 121.4110 249° West 386 444 34,000  Level FlightAware ADS-B
Wed 09:34:57 AM 25.0470 121.3530 230° Southwest 386 444 34,000  Level FlightAware ADS-B
Wed 09:35:42 AM 25.0010 121.2940 229° Southwest 387 445 34,000  Level FlightAware ADS-B
Wed 09:36:22 AM 24.9610 121.2440 229° Southwest 387 445 34,000  Level FlightAware ADS-B
Wed 09:37:12 AM 24.9110 121.1800 229° Southwest 387 445 34,000  Level FlightAware ADS-B
Wed 09:37:47 AM 24.8430 121.0900 230° Southwest 391 450 34,000  Level FlightAware ADS-B
Wed 09:38:37 AM 24.7750 120.9970 231° Southwest 392 451 34,000  Level FlightAware ADS-B
Wed 09:39:17 AM 24.7360 120.9430 232° Southwest 392 451 34,000  Level FlightAware ADS-B
Wed 09:39:57 AM 24.6910 120.8810 231° Southwest 392 451 34,000  Level FlightAware ADS-B
Wed 09:40:42 AM 24.6410 120.8120 231° Southwest 391 450 34,000  Level FlightAware ADS-B
Wed 09:41:17 AM 24.5980 120.7530 231° Southwest 391 450 34,000  Level FlightAware ADS-B
Wed 09:42:07 AM 24.5460 120.6820 231° Southwest 390 449 34,000  Level FlightAware ADS-B
Wed 09:42:47 AM 24.4980 120.6160 231° Southwest 384 442 34,000  Level FlightAware ADS-B
Wed 09:43:32 AM 24.4490 120.5490 231° Southwest 385 443 34,000  Level FlightAware ADS-B
Wed 09:44:02 AM 24.4150 120.5020 232° Southwest 388 447 34,000  Level FlightAware ADS-B
Wed 09:44:52 AM 24.3610 120.4270 232° Southwest 391 450 34,000  Level FlightAware ADS-B
Wed 09:45:32 AM 24.3140 120.3630 231° Southwest 393 452 34,000  Level FlightAware ADS-B
Wed 09:46:12 AM 24.2700 120.3040 231° Southwest 387 445 34,000  Level FlightAware ADS-B
Wed 09:46:57 AM 24.2180 120.2330 231° Southwest 387 445 34,000  Level FlightAware ADS-B
Wed 09:47:32 AM 24.1780 120.1780 231° Southwest 387 445 34,000  Level FlightAware ADS-B
Wed 09:48:22 AM 24.1240 120.1040 231° Southwest 388 447 34,000  Level FlightAware ADS-B
Wed 09:49:07 AM 24.0760 120.0400 231° Southwest 389 448 34,000  Level FlightAware ADS-B
Wed 09:49:47 AM 24.0270 119.9730 231° Southwest 391 450 34,000  Level FlightAware ADS-B
Wed 09:50:32 AM 23.9790 119.9080 231° Southwest 392 451 34,000  Level FlightAware ADS-B
Wed 09:51:22 AM 23.9200 119.8280 231° Southwest 394 453 34,000  Level FlightAware ADS-B
Wed 09:52:07 AM 23.8750 119.7680 231° Southwest 394 453 34,000  Level FlightAware ADS-B
Wed 09:52:52 AM 23.8160 119.6880 231° Southwest 395 455 34,000  Level FlightAware ADS-B
Wed 09:53:32 AM 23.7690 119.6250 231° Southwest 397 457 34,000  Level FlightAware ADS-B
Wed 09:54:12 AM 23.7230 119.5630 231° Southwest 398 458 34,000  Level FlightAware ADS-B
Wed 09:54:57 AM 23.6730 119.4950 231° Southwest 399 459 34,000  Level FlightAware ADS-B
Wed 09:55:37 AM 23.6230 119.4290 230° Southwest 400 460 34,000  Level FlightAware ADS-B
Wed 09:56:12 AM 23.5830 119.3760 231° Southwest 397 457 34,000  Level FlightAware ADS-B
Wed 09:56:52 AM 23.5350 119.3120 231° Southwest 399 459 34,000  Level FlightAware ADS-B
Wed 09:57:42 AM 23.4780 119.2350 231° Southwest 402 463 34,000  Level FlightAware ADS-B
Wed 09:58:22 AM 23.4300 119.1700 231° Southwest 401 461 34,000  Level FlightAware ADS-B
Wed 09:59:02 AM 23.3830 119.1080 230° Southwest 402 463 34,000  Level FlightAware ADS-B
Wed 09:59:47 AM 23.3310 119.0390 231° Southwest 402 463 34,000  Level FlightAware ADS-B
Wed 10:00:32 AM 23.2760 118.9660 231° Southwest 403 464 34,000  Level FlightAware ADS-B
Wed 10:01:22 AM 23.2210 118.8930 231° Southwest 405 466 34,000  Level FlightAware ADS-B
Wed 10:02:07 AM 23.1660 118.8210 230° Southwest 405 466 34,000  Level FlightAware ADS-B
Wed 10:02:47 AM 23.1180 118.7560 231° Southwest 407 468 34,000  Level FlightAware ADS-B
Wed 10:03:32 AM 23.0690 118.6920 230° Southwest 406 467 34,000  Level FlightAware ADS-B
Wed 10:04:17 AM 23.0190 118.6270 230° Southwest 407 468 34,000  Level FlightAware ADS-B
Wed 10:04:57 AM 22.9780 118.5740 230° Southwest 407 468 34,000  Level FlightAware ADS-B
Wed 10:05:52 AM 22.9090 118.4650 236° Southwest 394 453 34,000  Level FlightAware ADS-B
Wed 10:06:32 AM 22.8690 118.3970 237° Southwest 388 447 34,000  Level FlightAware ADS-B
Wed 10:07:32 AM 22.8130 118.3030 237° Southwest 387 445 34,000  Level FlightAware ADS-B
Wed 10:08:07 AM 22.7800 118.2480 237° Southwest 390 449 34,000  Level FlightAware ADS-B
Wed 10:08:47 AM 22.7350 118.1720 237° Southwest 392 451 34,000  Level FlightAware ADS-B
Wed 10:09:37 AM 22.6880 118.0930 237° Southwest 394 453 34,000  Level FlightAware ADS-B
Wed 10:10:17 AM 22.6480 118.0270 237° Southwest 395 455 34,000  Level FlightAware ADS-B
Wed 10:11:02 AM 22.6070 117.9590 237° Southwest 395 455 34,000  Level FlightAware ADS-B
Wed 10:11:42 AM 22.5640 117.8870 237° Southwest 393 452 34,000  Level FlightAware ADS-B
Wed 10:12:22 AM 22.5220 117.8150 238° Southwest 390 449 34,000  Level FlightAware ADS-B
Wed 10:13:07 AM 22.4800 117.7460 237° Southwest 390 449 34,000  Level FlightAware ADS-B
Wed 10:13:47 AM 22.4410 117.6800 237° Southwest 390 449 34,000  Level FlightAware ADS-B
Wed 10:14:27 AM 22.4010 117.6130 237° Southwest 393 452 34,000  Level FlightAware ADS-B
Wed 10:15:22 AM 22.3490 117.5260 237° Southwest 392 451 34,000  Level FlightAware ADS-B
Wed 10:16:02 AM 22.3150 117.4700 237° Southwest 392 451 34,000  Level FlightAware ADS-B
Wed 10:16:52 AM 22.2730 117.4000 237° Southwest 392 451 34,000  Level FlightAware ADS-B
Wed 10:17:32 AM 22.2400 117.3450 237° Southwest 392 451 34,000  Level FlightAware ADS-B
Wed 10:18:12 AM 22.2060 117.2890 237° Southwest 392 451 34,000  Level FlightAware ADS-B
Wed 10:18:52 AM 22.1730 117.2330 238° Southwest 392 451 34,000  Level FlightAware ADS-B
Wed 10:19:32 AM 22.1390 117.1770 237° Southwest 392 451 34,000  Level FlightAware ADS-B
Wed 10:19:57 AM 22.3250 117.0270 323° Northwest 34,000  Level FlightAware ADS-B
Wed 10:21:17 AM 22.3220 116.8790 269° West 362 417 34,000  Level FlightAware ADS-B
Wed 10:21:52 AM 22.3200 116.8190 268° West 362 417 34,000  Level FlightAware ADS-B
Wed 10:22:42 AM 22.3170 116.7420 268° West 362 417 34,000  Level FlightAware ADS-B
Wed 10:23:37 AM 22.3160 116.6310 269° West 333 383 34,000  Level FlightAware ADS-B
Wed 10:24:27 AM 22.3150 116.5580 269° West 336 387 34,000  Level FlightAware ADS-B
Wed 10:25:12 AM 22.3120 116.4890 267° West 336 387 34,000  Level FlightAware ADS-B
Wed 10:25:52 AM 22.3100 116.4320 268° West 336 387 34,000 -1,482 Level FlightAware ADS-B
Wed 10:26:37 AM 22.3090 116.3400 269° West 324 373 31,900 -1,482 Descending FlightAware ADS-B
Wed 10:27:17 AM 22.3070 116.2850 268° West 324 373 31,900  Level FlightAware ADS-B
Wed 10:27:57 AM 22.3050 116.2300 268° West 324 373 31,900  Level FlightAware ADS-B
Wed 10:28:47 AM 22.3030 116.1610 268° West 324 373 31,900  Level FlightAware ADS-B
Wed 10:29:27 AM 22.3010 116.1060 268° West 324 373 31,900  Level FlightAware ADS-B
Wed 10:30:07 AM 22.3000 116.0510 269° West 324 373 31,900  Level FlightAware ADS-B
Wed 10:30:47 AM 22.2980 115.9960 268° West 324 373 31,900  Level FlightAware ADS-B
Wed 10:31:27 AM 22.2960 115.9410 268° West 324 373 31,900  Level FlightAware ADS-B
Wed 10:32:07 AM 22.2940 115.8860 268° West 324 373 31,900  Level FlightAware ADS-B
Wed 10:32:57 AM 22.2920 115.8170 268° West 324 373 31,900  Level FlightAware ADS-B
Wed 10:33:27 AM 22.2910 115.7760 268° West 324 373 31,900  Level FlightAware ADS-B
Wed 10:34:17 AM 22.2880 115.7070 267° West 324 373 31,900  Level FlightAware ADS-B
Wed 10:34:57 AM 22.2870 115.6520 269° West 324 373 31,900  Level FlightAware ADS-B
Wed 10:35:37 AM 22.2850 115.5970 268° West 324 373 31,900 -2,648 Level FlightAware ADS-B
Wed 10:38:00 AM 22.2894 115.3612 271° West  Level Estimated
Wed 10:39:00 AM 22.2911 115.2623 271° West  Level Estimated
Wed 10:40:00 AM 22.2928 115.1633 271° West  Level Estimated
Wed 10:41:00 AM 22.2944 115.0644 271° West  Level Estimated
Wed 10:42:00 AM 22.2960 114.9654 271° West  Level Estimated
Wed 10:42:12 AM 22.2640 114.7650 271° West 314 361 12,700  Level FlightAware ADS-B
Wed 10:42:57 AM 22.2620 114.6980 268° West 312 359 12,500 -141 Descending FlightAware ADS-B
Wed 10:43:37 AM 22.2590 114.6450 267° West 312 359 12,500  Level FlightAware ADS-B
Wed 10:44:17 AM 22.2570 114.5920 268° West 312 359 12,500 -800 Level FlightAware ADS-B
Wed 10:45:07 AM 22.2550 114.4980 269° West 303 349 11,300 -758 Descending FlightAware ADS-B
Wed 10:45:52 AM 22.2520 114.4360 267° West 303 349 11,300  Level FlightAware ADS-B
Wed 10:46:42 AM 22.2490 114.3710 267° West 303 349 11,300 -730 Level FlightAware ADS-B
Wed 10:49:00 AM 22.2787 114.1457 278° West  Level Estimated
Wed 10:50:00 AM 22.2916 114.0477 278° West  Level Estimated
Wed 10:51:00 AM 22.3043 113.9497 278° West  Level Estimated
Wed 10:52:00 AM 22.3089 113.9146 278° West  Level Estimated
Wed 10:53:00 AM 22.3089 113.9146 110° East  Level Estimated
Wed 10:54:00 AM 22.3089 113.9146 110° East  Level Estimated
Wed 10:55:00 AM 22.3089 113.9146 110° East  Level Estimated
Wed 10:56:00 AM 22.3089 113.9146 110° East  Level Estimated
Wed 10:57:00 AM 22.3089 113.9146 110° East  Level Estimated
Wed 10:58:00 AM 22.3089 113.9146 110° East  Level Estimated
Wed 10:59:00 AM 22.3089 113.9146 110° East  Level Estimated
Wed 11:00:00 AM 22.3089 113.9146 110° East  Level Estimated
Wed 11:00:32 AM 22.3000 113.8640 110° East 146 168 600  Level FlightAware ADS-B
Wed 11:01:02 AM 22.3060 113.8820 70° East 141 162 200 -800 Descending FlightAware ADS-B
Wed 11:01:32 AM 22.3130 113.9040 71° East 141 162 -400 Descending FlightAware ADS-B

Login

Don't have an account? Register now (free) for customized features, flight alerts, and more!